Time;durP1;ratioP1;P1;durP2;ratioP2;P2;SDS_P1;SDS_P2;PMS_P1;PMS_P2;Temp;Humidity;BMP_temperature;BMP_pressure;BME280_temperature;BME280_humidity;BME280_pressure;Samples;Min_cycle;Max_cycle;Signal;HPM_P1;HPM_P2
2022/11/27 00:00:37;;;;;;;8.1;4.3;;;;;;;;;;;;;
2022/11/27 00:03:02;;;;;;;5;4.3;;;;;;;;;;;;;
2022/11/27 00:05:37;;;;;;;5.5;4;;;;;;;;;;;;;
2022/11/27 00:08:04;;;;;;;7.3;4.4;;;;;;;;;;;;;
2022/11/27 00:10:29;;;;;;;8.6;5.4;;;;;;;;;;;;;
2022/11/27 00:12:56;;;;;;;8.2;4.7;;;;;;;;;;;;;
2022/11/27 00:15:25;;;;;;;6;4.4;;;;;;;;;;;;;
2022/11/27 00:18:00;;;;;;;8.6;6.8;;;;;;;;;;;;;
2022/11/27 00:20:27;;;;;;;7.7;5.1;;;;;;;;;;;;;
2022/11/27 00:22:56;;;;;;;8.1;5.2;;;;;;;;;;;;;
2022/11/27 00:25:25;;;;;;;9.1;5.1;;;;;;;;;;;;;
2022/11/27 00:27:50;;;;;;;6.7;4.4;;;;;;;;;;;;;
2022/11/27 00:30:18;;;;;;;9;5.3;;;;;;;;;;;;;
2022/11/27 00:32:43;;;;;;;6.4;4.4;;;;;;;;;;;;;
2022/11/27 00:35:08;;;;;;;7;4.4;;;;;;;;;;;;;
2022/11/27 00:37:36;;;;;;;6.8;4.9;;;;;;;;;;;;;
2022/11/27 00:40:02;;;;;;;6.4;4.4;;;;;;;;;;;;;
2022/11/27 00:42:30;;;;;;;7.6;5.1;;;;;;;;;;;;;
2022/11/27 00:44:56;;;;;;;6.5;4.5;;;;;;;;;;;;;
2022/11/27 00:47:21;;;;;;;5.7;4.2;;;;;;;;;;;;;
2022/11/27 00:49:47;;;;;;;6.8;4.1;;;;;;;;;;;;;
2022/11/27 00:52:12;;;;;;;7.5;4.7;;;;;;;;;;;;;
2022/11/27 00:54:37;;;;;;;6.2;4;;;;;;;;;;;;;
2022/11/27 00:57:04;;;;;;;6.2;4.3;;;;;;;;;;;;;
2022/11/27 00:59:29;;;;;;;7.4;4.4;;;;;;;;;;;;;
2022/11/27 01:01:54;;;;;;;5.9;3.8;;;;;;;;;;;;;
2022/11/27 01:04:20;;;;;;;6.7;4;;;;;;;;;;;;;
2022/11/27 01:06:46;;;;;;;6.2;3.8;;;;;;;;;;;;;
2022/11/27 01:09:11;;;;;;;7.1;3.8;;;;;;;;;;;;;
2022/11/27 01:11:36;;;;;;;5.4;3.6;;;;;;;;;;;;;
2022/11/27 01:14:02;;;;;;;4.3;3.5;;;;;;;;;;;;;
2022/11/27 01:16:27;;;;;;;4.3;3.5;;;;;;;;;;;;;
2022/11/27 01:18:52;;;;;;;5;3.4;;;;;;;;;;;;;
2022/11/27 01:21:17;;;;;;;4.8;3.6;;;;;;;;;;;;;
2022/11/27 01:23:42;;;;;;;6.5;4.3;;;;;;;;;;;;;
2022/11/27 01:26:07;;;;;;;5.4;3.3;;;;;;;;;;;;;
2022/11/27 01:28:32;;;;;;;6.5;4.2;;;;;;;;;;;;;
2022/11/27 01:30:57;;;;;;;5.6;4.2;;;;;;;;;;;;;
2022/11/27 01:33:23;;;;;;;6.4;4.4;;;;;;;;;;;;;
2022/11/27 01:35:49;;;;;;;7.6;4.6;;;;;;;;;;;;;
2022/11/27 01:38:14;;;;;;;10.9;5.2;;;;;;;;;;;;;
2022/11/27 01:40:41;;;;;;;6.4;4.1;;;;;;;;;;;;;
2022/11/27 01:43:06;;;;;;;5.9;4.1;;;;;;;;;;;;;
2022/11/27 01:45:31;;;;;;;7.6;4.5;;;;;;;;;;;;;
2022/11/27 01:47:56;;;;;;;7.3;4.4;;;;;;;;;;;;;
2022/11/27 01:50:22;;;;;;;7.9;4.2;;;;;;;;;;;;;
2022/11/27 01:52:47;;;;;;;5.9;3.9;;;;;;;;;;;;;
2022/11/27 01:55:12;;;;;;;7.4;4.4;;;;;;;;;;;;;
2022/11/27 01:57:39;;;;;;;7.3;4.3;;;;;;;;;;;;;
2022/11/27 02:00:04;;;;;;;8.5;4.2;;;;;;;;;;;;;
2022/11/27 02:02:29;;;;;;;5.9;4.3;;;;;;;;;;;;;
2022/11/27 02:04:54;;;;;;;10.1;5.2;;;;;;;;;;;;;
2022/11/27 02:07:20;;;;;;;8;4.9;;;;;;;;;;;;;
2022/11/27 02:09:45;;;;;;;8.5;4.3;;;;;;;;;;;;;
2022/11/27 02:12:13;;;;;;;8.3;4.3;;;;;;;;;;;;;
2022/11/27 02:14:38;;;;;;;7.9;4.4;;;;;;;;;;;;;
2022/11/27 02:17:03;;;;;;;8.6;4.5;;;;;;;;;;;;;
2022/11/27 02:19:28;;;;;;;6.3;4;;;;;;;;;;;;;
2022/11/27 02:21:53;;;;;;;5.8;4;;;;;;;;;;;;;
2022/11/27 02:24:37;;;;;;;6.1;3.8;;;;;;;;;;;;;
2022/11/27 02:27:02;;;;;;;7.2;4.1;;;;;;;;;;;;;
2022/11/27 02:29:27;;;;;;;6.8;3.9;;;;;;;;;;;;;
2022/11/27 02:31:52;;;;;;;7.9;4.4;;;;;;;;;;;;;
2022/11/27 02:34:17;;;;;;;8.6;4.4;;;;;;;;;;;;;
2022/11/27 02:36:42;;;;;;;10;4.6;;;;;;;;;;;;;
2022/11/27 02:39:07;;;;;;;8.5;4.4;;;;;;;;;;;;;
2022/11/27 02:41:33;;;;;;;9.2;4.6;;;;;;;;;;;;;
2022/11/27 02:43:59;;;;;;;6.6;3.9;;;;;;;;;;;;;
2022/11/27 02:46:24;;;;;;;9.2;4.2;;;;;;;;;;;;;
2022/11/27 02:48:50;;;;;;;7.7;4.5;;;;;;;;;;;;;
2022/11/27 02:51:15;;;;;;;6.8;3.7;;;;;;;;;;;;;
2022/11/27 02:53:42;;;;;;;5.8;3.4;;;;;;;;;;;;;
2022/11/27 02:56:07;;;;;;;5.6;3.5;;;;;;;;;;;;;
2022/11/27 02:58:33;;;;;;;5.7;3.6;;;;;;;;;;;;;
2022/11/27 03:00:58;;;;;;;5.8;3.4;;;;;;;;;;;;;
2022/11/27 03:03:24;;;;;;;5.7;3.2;;;;;;;;;;;;;
2022/11/27 03:05:49;;;;;;;5.3;3.3;;;;;;;;;;;;;
2022/11/27 03:08:16;;;;;;;6.6;3.6;;;;;;;;;;;;;
2022/11/27 03:10:41;;;;;;;5.2;3.9;;;;;;;;;;;;;
2022/11/27 03:13:07;;;;;;;5.1;3.6;;;;;;;;;;;;;
2022/11/27 03:15:32;;;;;;;4.6;2.6;;;;;;;;;;;;;
2022/11/27 03:17:57;;;;;;;5.4;3.3;;;;;;;;;;;;;
2022/11/27 03:20:22;;;;;;;5.6;4;;;;;;;;;;;;;
2022/11/27 03:22:47;;;;;;;6;3.5;;;;;;;;;;;;;
2022/11/27 03:25:15;;;;;;;7.1;3.6;;;;;;;;;;;;;
2022/11/27 03:27:39;;;;;;;5.3;3.3;;;;;;;;;;;;;
2022/11/27 03:30:05;;;;;;;5.3;3.5;;;;;;;;;;;;;
2022/11/27 03:32:29;;;;;;;5.6;3.9;;;;;;;;;;;;;
2022/11/27 03:37:22;;;;;;;6.9;4.1;;;;;;;;;;;;;
2022/11/27 03:39:47;;;;;;;7.4;4;;;;;;;;;;;;;
2022/11/27 03:42:12;;;;;;;5.5;3.5;;;;;;;;;;;;;
2022/11/27 03:44:37;;;;;;;5.3;3.2;;;;;;;;;;;;;
2022/11/27 03:47:02;;;;;;;4.3;3.3;;;;;;;;;;;;;
2022/11/27 03:49:27;;;;;;;4.8;3.1;;;;;;;;;;;;;
2022/11/27 03:51:53;;;;;;;4.6;3;;;;;;;;;;;;;
2022/11/27 03:54:18;;;;;;;4.4;2.9;;;;;;;;;;;;;
2022/11/27 03:56:43;;;;;;;4.7;3.1;;;;;;;;;;;;;
2022/11/27 03:59:08;;;;;;;4.2;3.3;;;;;;;;;;;;;
2022/11/27 04:02:32;;;;;;;4.6;3.3;;;;;;;-0.27;97.45313;947.035;;;;
2022/11/27 04:04:58;;;;;;;7.6;3.9;;;;;;;-0.27;97.58691;947.132;;;;
2022/11/27 04:07:23;;;;;;;4.6;3.3;;;;;;;-0.23;97.72656;946.9925;;;;
2022/11/27 04:09:53;;;;;;;6.7;3.5;;;;;;;-0.19;97.50586;947.0733;;;;
2022/11/27 04:12:18;;;;;;;7;3.2;;;;;;;-0.09;97.07129;947.0787;;;;
2022/11/27 04:14:43;;;;;;;4.8;3.1;;;;;;;-0.14;96.8584;947.0652;;;;
2022/11/27 04:17:09;;;;;;;8.3;4.3;;;;;;;-0.13;96.7832;947.0461;;;;
2022/11/27 04:19:36;;;;;;;6.1;3.9;;;;;;;-0.14;96.34668;946.9416;;;;
2022/11/27 04:22:02;;;;;;;6.6;3.8;;;;;;;-0.18;95.99316;947.0223;;;;
2022/11/27 04:24:27;;;;;;;7.2;3.7;;;;;;;-0.17;95.9502;946.9747;;;;
2022/11/27 04:27:55;;;;;;;5.5;3.6;;;;;;;-0.34;96.49023;946.9459;;;;
2022/11/27 04:30:27;;;;;;;7.2;3.9;;;;;;;-0.22;96.09668;946.8691;;;;
2022/11/27 04:32:56;;;;;;;5.8;3.4;;;;;;;-0.2;95.85352;946.9296;;;;
2022/11/27 04:35:26;;;;;;;5.7;3;;;;;;;-0.09;95.75586;946.8348;;;;
2022/11/27 04:37:57;;;;;;;3.8;2.8;;;;;;;-0.03;96.02637;946.9226;;;;
2022/11/27 04:40:28;;;;;;;4.1;2.6;;;;;;;0.09;94.76074;946.9317;;;;
2022/11/27 04:42:58;;;;;;;5.2;3.3;;;;;;;0.04;94.67188;946.932;;;;
2022/11/27 04:45:23;;;;;;;5.7;2.9;;;;;;;0.1;94.46387;946.9994;;;;
2022/11/27 04:47:54;;;;;;;4.7;3;;;;;;;0.14;93.68066;947.0912;;;;
2022/11/27 04:50:25;;;;;;;7.2;3.7;;;;;;;0.08;93.56641;947.0854;;;;
2022/11/27 04:52:56;;;;;;;7.8;4.2;;;;;;;-0.01;93.67969;947.1033;;;;
2022/11/27 04:55:26;;;;;;;5.1;3.4;;;;;;;0.02;93.94238;947.1459;;;;
2022/11/27 04:57:51;;;;;;;8.9;4.1;;;;;;;-0.12;93.94727;947.2288;;;;
2022/11/27 05:00:22;;;;;;;7.3;3.5;;;;;;;-0.12;94.20313;947.1951;;;;
2022/11/27 05:02:47;;;;;;;4.9;3.1;;;;;;;-0.04;93.94141;947.1884;;;;
2022/11/27 05:05:20;;;;;;;5.6;3.3;;;;;;;0.02;93.71875;947.123;;;;
2022/11/27 05:07:48;;;;;;;5.1;3.3;;;;;;;0.03;93.2998;947.1397;;;;
2022/11/27 05:10:13;;;;;;;4.4;2.6;;;;;;;0.09;92.75488;947.0829;;;;
2022/11/27 05:12:46;;;;;;;4.7;3.1;;;;;;;0.06;92.98438;947.1111;;;;
2022/11/27 05:15:17;;;;;;;2.8;2.4;;;;;;;0.09;92.66602;947.1135;;;;
2022/11/27 05:17:43;;;;;;;4.1;3.1;;;;;;;0.02;92.5498;947.2039;;;;
2022/11/27 05:20:14;;;;;;;5.8;2.8;;;;;;;-0.1;92.66895;947.2297;;;;
2022/11/27 05:22:45;;;;;;;6.2;2.8;;;;;;;-0.08;92.88574;947.1624;;;;
2022/11/27 05:25:09;;;;;;;5.3;2.6;;;;;;;-0.07;92.73242;947.0775;;;;
2022/11/27 05:27:36;;;;;;;3.9;2.6;;;;;;;-0.12;92.90918;947.1476;;;;
2022/11/27 05:30:01;;;;;;;2.5;2;;;;;;;-0.13;93.00781;947.1275;;;;
2022/11/27 05:32:30;;;;;;;4.1;2.6;;;;;;;-0.16;92.7998;947.1547;;;;
2022/11/27 05:34:55;;;;;;;2.2;1.9;;;;;;;0.06;92.5166;947.1353;;;;
2022/11/27 05:37:22;;;;;;;2.8;2.2;;;;;;;0.27;91.45703;947.0367;;;;
2022/11/27 05:39:47;;;;;;;2.9;2;;;;;;;0.3;90.4502;947.1351;;;;
2022/11/27 05:42:13;;;;;;;3.3;2.3;;;;;;;0.3;90.4375;947.1238;;;;
2022/11/27 05:44:38;;;;;;;3.2;2.5;;;;;;;0.34;90.38184;947.1655;;;;
2022/11/27 05:47:08;;;;;;;3.7;2.4;;;;;;;0.43;89.21777;947.0978;;;;
2022/11/27 05:49:39;;;;;;;4.1;2.8;;;;;;;0.4;89.22266;947.1994;;;;
2022/11/27 05:52:08;;;;;;;4.7;3.1;;;;;;;0.38;89.37305;947.0972;;;;
2022/11/27 05:54:33;;;;;;;7.5;4.8;;;;;;;0.12;90.61035;947.2453;;;;
2022/11/27 05:57:01;;;;;;;14.8;8.5;;;;;;;-0.09;91.36914;947.2977;;;;
2022/11/27 05:59:27;;;;;;;21.8;12;;;;;;;-0.13;91.70508;947.2187;;;;
2022/11/27 06:01:55;;;;;;;7.2;4.9;;;;;;;-0.08;91.50488;947.2241;;;;
2022/11/27 06:04:23;;;;;;;4.8;3.9;;;;;;;-0.01;91.01953;947.2296;;;;
2022/11/27 06:06:48;;;;;;;4.7;3.6;;;;;;;-0.32;91.66406;947.1262;;;;
2022/11/27 06:09:13;;;;;;;6.5;4;;;;;;;-0.41;92.73438;947.1454;;;;
2022/11/27 06:11:38;;;;;;;5.2;3.6;;;;;;;-0.31;92.50098;947.1497;;;;
2022/11/27 06:14:03;;;;;;;5.1;3.7;;;;;;;-0.42;92.78809;947.1387;;;;
2022/11/27 06:16:29;;;;;;;4.8;3.7;;;;;;;-0.47;93.09863;947.2068;;;;
2022/11/27 06:18:57;;;;;;;5.9;4.1;;;;;;;-0.43;93.05371;947.2192;;;;
2022/11/27 06:21:26;;;;;;;7;4;;;;;;;-0.37;92.72266;947.2664;;;;
2022/11/27 06:23:51;;;;;;;4;3;;;;;;;-0.36;92.55566;947.2134;;;;
2022/11/27 06:26:21;;;;;;;5.3;3.7;;;;;;;-0.45;92.69336;947.2442;;;;
2022/11/27 06:28:46;;;;;;;4.6;3.1;;;;;;;-0.38;92.13965;947.1567;;;;
2022/11/27 06:31:14;;;;;;;4;2.9;;;;;;;-0.34;91.91602;947.2065;;;;
2022/11/27 06:33:41;;;;;;;4;2.8;;;;;;;-0.33;91.65234;947.1525;;;;
2022/11/27 06:36:06;;;;;;;2.2;2;;;;;;;-0.34;91.7373;947.0908;;;;
2022/11/27 06:38:35;;;;;;;4.3;2.1;;;;;;;-0.37;91.7207;946.9778;;;;
2022/11/27 06:41:00;;;;;;;2.6;2.2;;;;;;;-0.38;91.81641;947.0165;;;;
2022/11/27 06:43:28;;;;;;;4.3;3.2;;;;;;;-0.61;92.21484;946.9289;;;;
2022/11/27 06:45:53;;;;;;;6;3.5;;;;;;;-0.54;94.18652;947.0126;;;;
2022/11/27 06:48:19;;;;;;;6.2;3.6;;;;;;;-0.35;92.98242;946.9775;;;;
2022/11/27 06:50:45;;;;;;;5.6;3.6;;;;;;;-0.19;91.8584;946.9615;;;;
2022/11/27 06:53:10;;;;;;;6;4.4;;;;;;;-0.31;91.72363;946.9457;;;;
2022/11/27 06:55:38;;;;;;;6.2;4;;;;;;;-0.28;92.5752;946.9247;;;;
2022/11/27 06:58:39;;;;;;;3.8;2.7;;;;;;;-0.21;91.62012;946.8826;;;;
2022/11/27 07:01:04;;;;;;;4.1;3.1;;;;;;;-0.23;91.41602;946.8855;;;;
2022/11/27 07:03:29;;;;;;;5.2;4;;;;;;;-0.19;91.00098;946.8898;;;;
2022/11/27 07:05:59;;;;;;;7;5.2;;;;;;;-0.35;90.68945;946.7957;;;;
2022/11/27 07:08:24;;;;;;;9.2;5.9;;;;;;;-0.52;91.17578;946.8144;;;;
2022/11/27 07:10:55;;;;;;;10;6.3;;;;;;;-0.64;91.57227;946.8025;;;;
2022/11/27 07:13:21;;;;;;;9.3;6.2;;;;;;;-0.59;91.71582;946.7598;;;;
2022/11/27 07:15:57;;;;;;;10.4;7.7;;;;;;;-0.59;92.16113;946.7463;;;;
2022/11/27 07:31:16;;;;;;;5.7;3.8;;;;;;;1.22;88.2998;946.5734;;;;
2022/11/27 07:33:41;;;;;;;7.4;4.9;;;;;;;1.81;83.71582;946.5325;;;;
2022/11/27 07:36:06;;;;;;;6.2;4.2;;;;;;;1.74;81.03809;946.4767;;;;
2022/11/27 07:38:31;;;;;;;5.8;3.7;;;;;;;1.9;80.86719;946.4619;;;;
2022/11/27 07:40:59;;;;;;;6;3.9;;;;;;;2;79.08398;946.4357;;;;
2022/11/27 07:43:24;;;;;;;4.7;3.2;;;;;;;2.52;77.93652;946.4659;;;;
2022/11/27 07:45:53;;;;;;;4.3;2.8;;;;;;;2.83;75.83203;946.4633;;;;
2022/11/27 07:48:18;;;;;;;5.1;3.4;;;;;;;3.23;74.11621;946.4094;;;;
2022/11/27 07:50:45;;;;;;;8.1;5.3;;;;;;;3.51;72.49219;946.3365;;;;
2022/11/27 07:53:10;;;;;;;7.2;5.4;;;;;;;3.6;72.50684;946.3488;;;;
2022/11/27 07:55:38;;;;;;;8.2;5.9;;;;;;;3.53;72.39355;946.2512;;;;
2022/11/27 07:58:06;;;;;;;3.9;3.2;;;;;;;2.81;74.07813;946.2339;;;;
2022/11/27 08:00:31;;;;;;;3;2.7;;;;;;;2.84;74.18359;946.2223;;;;
2022/11/27 08:02:57;;;;;;;4.1;2.8;;;;;;;3.41;72.58691;946.2665;;;;
2022/11/27 08:05:22;;;;;;;5.1;3.1;;;;;;;3.65;71.83105;946.1927;;;;
2022/11/27 08:07:52;;;;;;;3.8;3;;;;;;;4.38;68.99414;946.1827;;;;
2022/11/27 08:10:20;;;;;;;2.3;2.1;;;;;;;4.63;67.26563;946.1831;;;;
2022/11/27 08:12:45;;;;;;;8.6;6.2;;;;;;;5.31;65.15137;946.1731;;;;
2022/11/27 08:15:12;;;;;;;5.5;4.2;;;;;;;5.55;64.2832;946.1909;;;;
2022/11/27 08:18:06;;;;;;;5.8;4;;;;;;;6.47;61.38086;946.1141;;;;
2022/11/27 08:20:33;;;;;;;4.7;4;;;;;;;6.9;59.16699;946.1353;;;;
2022/11/27 08:22:58;;;;;;;5.3;3.9;;;;;;;6.84;59.26074;946.0674;;;;
2022/11/27 08:25:27;;;;;;;2.7;1.7;;;;;;;5.92;57.69824;946.0464;;;;
2022/11/27 08:27:54;;;;;;;1.2;1.1;;;;;;;5;61.1709;946.0394;;;;
2022/11/27 08:30:22;;;;;;;5;3.4;;;;;;;5.74;62.26953;946.0758;;;;
2022/11/27 08:32:45;;;;;;;4.4;3.4;;;;;;;5.98;60.33789;945.9941;;;;
2022/11/27 08:35:15;;;;;;;5.1;3.3;;;;;;;5.47;62.74902;946.0797;;;;
2022/11/27 08:37:44;;;;;;;2.7;1.9;;;;;;;4.47;63.85254;946.0978;;;;
2022/11/27 08:40:09;;;;;;;2.5;1.8;;;;;;;4.19;65.54395;946.1183;;;;
2022/11/27 08:42:35;;;;;;;2.2;1.8;;;;;;;3.54;68.91309;946.101;;;;
2022/11/27 08:45:01;;;;;;;3.4;2.1;;;;;;;2.93;71.41699;946.1102;;;;
2022/11/27 08:47:26;;;;;;;3.7;2.2;;;;;;;2.76;73.1709;946.1083;;;;
2022/11/27 08:49:53;;;;;;;2.8;1.5;;;;;;;2.8;73.11133;946.0012;;;;
2022/11/27 08:52:19;;;;;;;1.3;1.2;;;;;;;2.75;72.75488;946.0349;;;;
2022/11/27 08:54:43;;;;;;;1.7;1.5;;;;;;;2.76;73.93359;946.0344;;;;
2022/11/27 08:57:10;;;;;;;1.8;1.5;;;;;;;2.81;74.4707;946.0578;;;;
2022/11/27 08:59:35;;;;;;;1.7;1.2;;;;;;;2.67;72.13574;946.059;;;;
2022/11/27 09:02:00;;;;;;;2.1;1.6;;;;;;;2.59;72.6377;945.9422;;;;
2022/11/27 09:04:25;;;;;;;4.4;2.9;;;;;;;2.65;75.03418;945.9297;;;;
2022/11/27 09:06:50;;;;;;;2.2;1.6;;;;;;;2.62;72.2832;945.874;;;;
2022/11/27 09:09:18;;;;;;;1.9;1.5;;;;;;;2.66;70.85645;945.9412;;;;
2022/11/27 09:11:43;;;;;;;1.6;1.2;;;;;;;2.7;70.96484;945.8752;;;;
2022/11/27 09:14:12;;;;;;;1.6;1.2;;;;;;;2.83;71.23242;945.8795;;;;
2022/11/27 09:16:37;;;;;;;5.1;1.4;;;;;;;2.93;71.78711;945.8414;;;;
2022/11/27 09:22:48;;;;;;;2.7;1.6;;;;;;;3.1;70.13379;945.8233;;;;
2022/11/27 09:25:15;;;;;;;1.9;1.2;;;;;;;3.26;69.03613;945.7581;;;;
2022/11/27 09:27:40;;;;;;;1.5;1.4;;;;;;;3.18;68.6543;945.674;;;;
2022/11/27 09:30:07;;;;;;;2.5;1.3;;;;;;;3.37;71.11035;945.6252;;;;
2022/11/27 09:32:32;;;;;;;2.2;1.1;;;;;;;3.54;71.60938;945.5419;;;;
2022/11/27 09:34:57;;;;;;;3.1;1;;;;;;;3.66;68.85352;945.5967;;;;
2022/11/27 09:37:23;;;;;;;1.1;1;;;;;;;3.7;67.93945;945.5262;;;;
2022/11/27 09:39:48;;;;;;;1.1;1;;;;;;;3.77;67.70313;945.4807;;;;
2022/11/27 09:42:17;;;;;;;1.3;1.2;;;;;;;3.78;67.18848;945.4688;;;;
2022/11/27 09:44:44;;;;;;;1.8;1.4;;;;;;;3.84;68.35547;945.407;;;;
2022/11/27 09:47:12;;;;;;;3;1.1;;;;;;;3.86;67.88672;945.3755;;;;
2022/11/27 09:49:37;;;;;;;0.8;0.7;;;;;;;3.91;66.82715;945.3038;;;;
2022/11/27 09:52:05;;;;;;;1.5;1;;;;;;;3.95;64.79883;945.2902;;;;
2022/11/27 09:54:30;;;;;;;1.9;1.2;;;;;;;4;64.45703;945.1819;;;;
2022/11/27 09:56:57;;;;;;;1.3;1;;;;;;;4.04;63.97949;945.1674;;;;
2022/11/27 09:59:22;;;;;;;1.8;1.2;;;;;;;4.11;63.87793;945.1887;;;;
2022/11/27 10:01:50;;;;;;;2.2;1.3;;;;;;;4.22;65.10938;945.1111;;;;
2022/11/27 10:04:20;;;;;;;2.6;1;;;;;;;4.27;64.3291;945.0701;;;;
2022/11/27 10:07:12;;;;;;;2.4;1.2;;;;;;;4.37;62.12598;944.9732;;;;
2022/11/27 10:09:37;;;;;;;4.5;1.6;;;;;;;4.64;62.93164;944.9468;;;;
2022/11/27 10:12:02;;;;;;;3.7;1.8;;;;;;;4.63;64.94531;944.9339;;;;
2022/11/27 10:14:31;;;;;;;2.7;1.4;;;;;;;4.68;61.32617;944.9381;;;;
2022/11/27 10:17:00;;;;;;;2.8;1.9;;;;;;;4.71;61.10547;944.9158;;;;
2022/11/27 10:19:25;;;;;;;5.3;2.1;;;;;;;4.85;61.66699;944.9377;;;;
2022/11/27 10:21:50;;;;;;;1.2;1.1;;;;;;;4.83;56.05273;944.858;;;;
2022/11/27 10:24:15;;;;;;;4.5;1.9;;;;;;;4.89;59.26074;944.7904;;;;
2022/11/27 10:26:40;;;;;;;3.1;1.8;;;;;;;5.1;59.56152;944.7392;;;;
2022/11/27 10:29:06;;;;;;;2.1;1.5;;;;;;;4.95;55.4834;944.6389;;;;
2022/11/27 10:31:31;;;;;;;2.4;1.5;;;;;;;5.11;57.14941;944.6519;;;;
2022/11/27 10:33:56;;;;;;;2.6;1.7;;;;;;;5.14;53.42188;944.6208;;;;
2022/11/27 10:36:21;;;;;;;2.3;1.6;;;;;;;5.05;52.99316;944.4539;;;;
2022/11/27 10:38:46;;;;;;;3.4;1.3;;;;;;;5.3;55.38086;944.5389;;;;
2022/11/27 10:41:11;;;;;;;2.7;1.7;;;;;;;5.44;57.22754;944.51;;;;
2022/11/27 10:43:36;;;;;;;1.8;1.1;;;;;;;5.54;58.73047;944.3575;;;;
2022/11/27 10:46:02;;;;;;;0.7;0.6;;;;;;;5.63;58.21289;944.4171;;;;
2022/11/27 10:48:29;;;;;;;0.6;0.6;;;;;;;5.55;59.86035;944.4036;;;;
2022/11/27 10:57:20;;;;;;;1.4;0.8;;;;;;;5.8;58.65234;944.2534;;;;
2022/11/27 10:59:49;;;;;;;0.6;0.6;;;;;;;5.78;58.35742;944.1802;;;;
2022/11/27 11:02:16;;;;;;;0.7;0.7;;;;;;;5.72;58.7666;944.2189;;;;
2022/11/27 11:04:41;;;;;;;0.9;0.7;;;;;;;5.73;60.67578;944.101;;;;
2022/11/27 11:07:07;;;;;;;1.7;0.8;;;;;;;5.92;59.29102;943.9788;;;;
2022/11/27 11:09:33;;;;;;;0.9;0.6;;;;;;;5.93;58.31055;944.0298;;;;
2022/11/27 11:12:17;;;;;;;1;0.9;;;;;;;6.01;52.25293;943.9961;;;;
2022/11/27 11:14:41;;;;;;;2.1;1;;;;;;;6.28;52.78418;943.9398;;;;
2022/11/27 11:17:06;;;;;;;1.2;0.9;;;;;;;6.33;50.85645;943.9588;;;;
2022/11/27 11:19:33;;;;;;;1.2;1.1;;;;;;;6.4;49.92773;943.9355;;;;
2022/11/27 11:21:58;;;;;;;1.8;1.2;;;;;;;6.61;52.07715;943.9717;;;;
2022/11/27 11:24:23;;;;;;;7.4;2.2;;;;;;;6.76;52.71875;943.9652;;;;
2022/11/27 11:26:48;;;;;;;1.6;0.9;;;;;;;6.73;49.08203;943.8984;;;;
2022/11/27 11:29:14;;;;;;;1.4;1;;;;;;;6.84;49.01563;943.9777;;;;
2022/11/27 11:31:39;;;;;;;1.2;0.9;;;;;;;6.82;48.93457;943.8956;;;;
2022/11/27 11:34:04;;;;;;;1.1;1;;;;;;;6.85;46.95703;943.9584;;;;
2022/11/27 11:36:29;;;;;;;0.6;0.5;;;;;;;6.91;50.95996;943.9927;;;;
2022/11/27 11:38:57;;;;;;;0.7;0.6;;;;;;;6.89;52.44043;944.0173;;;;
2022/11/27 11:41:26;;;;;;;0.8;0.6;;;;;;;6.87;52.83398;943.9105;;;;
2022/11/27 11:43:56;;;;;;;0.6;0.6;;;;;;;6.94;52.78613;943.7972;;;;
2022/11/27 11:46:22;;;;;;;0.7;0.6;;;;;;;6.97;52.07617;943.8567;;;;
2022/11/27 11:48:48;;;;;;;1.2;0.6;;;;;;;7.15;50.8291;943.8245;;;;
2022/11/27 11:51:15;;;;;;;0.4;0.4;;;;;;;7.19;50.58496;943.8797;;;;
2022/11/27 11:53:44;;;;;;;0.7;0.5;;;;;;;7.18;50.35742;943.756;;;;
2022/11/27 11:56:08;;;;;;;0.7;0.6;;;;;;;7.3;50.99512;943.7622;;;;
2022/11/27 11:58:33;;;;;;;0.8;0.5;;;;;;;7.36;47.22852;943.7958;;;;
2022/11/27 12:00:58;;;;;;;1.5;0.5;;;;;;;7.61;48.69629;943.697;;;;
2022/11/27 12:03:46;;;;;;;2.1;1.1;;;;;;;7.77;47.60156;943.7513;;;;
2022/11/27 12:06:11;;;;;;;1;0.9;;;;;;;7.89;49.27246;943.702;;;;
2022/11/27 12:08:36;;;;;;;1.1;0.7;;;;;;;7.83;49.48047;943.675;;;;
2022/11/27 12:11:01;;;;;;;0.8;0.8;;;;;;;7.72;50.47656;943.5936;;;;
2022/11/27 12:13:28;;;;;;;1.6;0.8;;;;;;;7.84;50.29883;943.5421;;;;
2022/11/27 12:15:53;;;;;;;0.6;0.6;;;;;;;7.75;49.40332;943.5406;;;;
2022/11/27 12:18:18;;;;;;;0.8;0.5;;;;;;;7.91;47.29883;943.5375;;;;
2022/11/27 12:20:43;;;;;;;1;0.8;;;;;;;8.08;47.54492;943.5291;;;;
2022/11/27 12:23:09;;;;;;;0.8;0.6;;;;;;;8.15;44.38477;943.4778;;;;
2022/11/27 12:25:34;;;;;;;1.5;0.6;;;;;;;8.08;47.14746;943.4314;;;;
2022/11/27 12:28:17;;;;;;;0.5;0.5;;;;;;;8.18;47.64648;943.366;;;;
2022/11/27 12:30:40;;;;;;;1.3;1.1;;;;;;;8.27;45.41895;943.3494;;;;
2022/11/27 12:33:05;;;;;;;2.9;1.3;;;;;;;8.51;43.18359;943.2658;;;;
2022/11/27 12:35:30;;;;;;;2.4;1.7;;;;;;;8.61;42.19336;943.2802;;;;
2022/11/27 12:37:57;;;;;;;2.1;1.4;;;;;;;8.67;44.28027;943.2646;;;;
2022/11/27 12:40:23;;;;;;;0.9;0.8;;;;;;;8.61;45.33105;943.1997;;;;
2022/11/27 12:42:48;;;;;;;1.8;1.2;;;;;;;8.74;47.12891;943.1534;;;;
2022/11/27 12:45:13;;;;;;;1.2;1.1;;;;;;;8.65;44.28809;943.0823;;;;
2022/11/27 12:47:38;;;;;;;2.3;1.2;;;;;;;8.84;43.125;943.0601;;;;
2022/11/27 12:50:03;;;;;;;1.2;1;;;;;;;9.04;44.4082;943.038;;;;
2022/11/27 12:52:32;;;;;;;1.4;1.1;;;;;;;9.13;44.53223;943.0184;;;;
2022/11/27 12:54:57;;;;;;;0.6;0.6;;;;;;;9;43.85938;943.0496;;;;
2022/11/27 12:57:22;;;;;;;1.6;0.8;;;;;;;9.08;45.01563;942.9889;;;;
2022/11/27 12:59:50;;;;;;;2;0.9;;;;;;;9.15;45.50195;942.981;;;;
2022/11/27 13:02:15;;;;;;;2.2;1.2;;;;;;;9.31;44.18652;942.9377;;;;
2022/11/27 13:04:41;;;;;;;4.7;1.6;;;;;;;9.5;43.625;942.915;;;;
2022/11/27 13:07:06;;;;;;;1.9;1.2;;;;;;;9.52;45.4834;942.9624;;;;
2022/11/27 13:09:31;;;;;;;1.9;1.2;;;;;;;9.31;46.9873;942.8997;;;;
2022/11/27 13:11:57;;;;;;;2.1;1.7;;;;;;;9.4;47.12207;942.8959;;;;
2022/11/27 13:14:22;;;;;;;3.4;2.4;;;;;;;9.5;46.18652;942.8577;;;;
2022/11/27 13:16:47;;;;;;;4.2;2.8;;;;;;;9.5;47.49707;942.7194;;;;
2022/11/27 13:19:13;;;;;;;4.8;2.5;;;;;;;9.63;47.61426;942.712;;;;
2022/11/27 13:21:38;;;;;;;4.3;2.5;;;;;;;9.68;47.48242;942.6868;;;;
2022/11/27 13:24:03;;;;;;;4.5;2.4;;;;;;;9.93;47.01855;942.6258;;;;
2022/11/27 13:26:31;;;;;;;3.7;2;;;;;;;10.09;46.47754;942.5408;;;;
2022/11/27 13:28:56;;;;;;;3;1.6;;;;;;;10.2;44.53906;942.5786;;;;
2022/11/27 13:31:21;;;;;;;3;2.1;;;;;;;10.22;43.95996;942.5595;;;;
2022/11/27 13:33:47;;;;;;;4.2;2.8;;;;;;;10.38;41.33984;942.365;;;;
2022/11/27 13:36:12;;;;;;;3.8;2.1;;;;;;;10.46;38.6875;942.4009;;;;
2022/11/27 13:38:40;;;;;;;4;2;;;;;;;11.25;37.32813;942.4336;;;;
2022/11/27 13:41:04;;;;;;;4;2.1;;;;;;;12.12;36.0166;942.4102;;;;
2022/11/27 13:43:31;;;;;;;3.9;1.6;;;;;;;13.37;33.56934;942.3506;;;;
2022/11/27 13:45:53;;;;;;;1.9;1.2;;;;;;;14.63;31.96094;942.2516;;;;
2022/11/27 13:48:20;;;;;;;2.3;1.7;;;;;;;16.59;28.6543;942.2427;;;;
2022/11/27 13:50:45;;;;;;;4.9;3.8;;;;;;;14.75;29.24805;942.2467;;;;
2022/11/27 13:53:13;;;;;;;8.4;4.5;;;;;;;14.41;31.20703;942.2576;;;;
2022/11/27 13:55:40;;;;;;;4;2.8;;;;;;;13.11;32.37695;942.2383;;;;
2022/11/27 13:58:05;;;;;;;6.3;2.6;;;;;;;12.32;33.5791;942.2855;;;;
2022/11/27 14:00:34;;;;;;;5.1;2.8;;;;;;;13.12;33.57324;942.2175;;;;
2022/11/27 14:02:59;;;;;;;4.8;2.7;;;;;;;11.64;35.61035;942.2581;;;;
2022/11/27 14:05:25;;;;;;;4.2;2.6;;;;;;;11.08;36.75293;942.2612;;;;
2022/11/27 14:07:50;;;;;;;7.2;2.9;;;;;;;10.98;39.24805;942.2779;;;;
2022/11/27 14:10:20;;;;;;;5.8;4.1;;;;;;;10.71;39.9209;942.1924;;;;
2022/11/27 14:12:49;;;;;;;5.8;4.2;;;;;;;10.13;41.03027;942.2201;;;;
2022/11/27 14:15:14;;;;;;;4.8;3.1;;;;;;;10.11;39.43066;942.1671;;;;
2022/11/27 14:17:41;;;;;;;6.5;3.7;;;;;;;10.29;39.28809;942.2098;;;;
2022/11/27 14:20:12;;;;;;;5.5;3.7;;;;;;;10.02;39.35449;942.2014;;;;
2022/11/27 14:22:37;;;;;;;7.3;4.3;;;;;;;9.76;40.3457;942.166;;;;
2022/11/27 14:25:02;;;;;;;7.6;4.9;;;;;;;9.16;41.89453;942.2915;;;;
2022/11/27 14:27:27;;;;;;;13.8;7.8;;;;;;;8.56;42.97266;942.2535;;;;
2022/11/27 14:29:55;;;;;;;15;8.3;;;;;;;8.72;43.61426;942.3139;;;;
2022/11/27 14:32:20;;;;;;;13.6;7.6;;;;;;;8.66;44.7334;942.2975;;;;
2022/11/27 14:34:46;;;;;;;10.4;5.7;;;;;;;8.34;45.09766;942.3297;;;;
2022/11/27 14:37:11;;;;;;;9.6;6.3;;;;;;;8.03;46.47266;942.2875;;;;
2022/11/27 14:39:38;;;;;;;14.8;8.9;;;;;;;7.57;46.30859;942.2791;;;;
2022/11/27 14:42:04;;;;;;;14.4;8.3;;;;;;;7.19;47.00488;942.257;;;;
2022/11/27 14:44:29;;;;;;;11;7.3;;;;;;;7;48.65918;942.3098;;;;
2022/11/27 14:46:58;;;;;;;14.1;8.2;;;;;;;7;48.68164;942.3502;;;;
2022/11/27 14:49:23;;;;;;;15.4;9.2;;;;;;;7.01;49.95313;942.37;;;;
2022/11/27 14:51:49;;;;;;;13.4;8.6;;;;;;;6.83;50.90527;942.38;;;;
2022/11/27 14:54:13;;;;;;;15;10;;;;;;;6.61;53.0293;942.3281;;;;
2022/11/27 14:56:38;;;;;;;14.1;9.2;;;;;;;6.72;52.96191;942.356;;;;
2022/11/27 14:59:05;;;;;;;9.1;5.3;;;;;;;6.73;54.35645;942.2873;;;;
2022/11/27 15:01:30;;;;;;;9;4.8;;;;;;;6.67;55.77539;942.3608;;;;
2022/11/27 15:03:55;;;;;;;11.3;4.9;;;;;;;6.49;56.56445;942.3708;;;;
2022/11/27 15:06:22;;;;;;;9.2;4.9;;;;;;;6.46;57.10449;942.2352;;;;
2022/11/27 15:08:49;;;;;;;16.1;8.3;;;;;;;6.3;56.42676;942.3058;;;;
2022/11/27 15:11:13;;;;;;;11.5;7.1;;;;;;;6.32;57.08594;942.2061;;;;
2022/11/27 15:13:38;;;;;;;11.7;6.8;;;;;;;6.29;57.26074;942.2288;;;;
2022/11/27 15:16:09;;;;;;;26.1;13.3;;;;;;;6.08;57.03027;942.1894;;;;
2022/11/27 15:18:34;;;;;;;23.4;12.9;;;;;;;5.9;57.98926;942.2227;;;;
2022/11/27 15:20:59;;;;;;;28;16.4;;;;;;;5.63;58.77734;942.2139;;;;
2022/11/27 15:23:25;;;;;;;38.1;22.4;;;;;;;5.29;59.46289;942.1692;;;;
2022/11/27 15:25:50;;;;;;;34.9;20.9;;;;;;;5.27;60.12598;942.1922;;;;
2022/11/27 15:28:17;;;;;;;36.6;18.3;;;;;;;5.1;61.21875;942.1053;;;;
2022/11/27 15:30:45;;;;;;;45.4;25.3;;;;;;;4.86;61.40918;942.128;;;;
2022/11/27 15:33:10;;;;;;;39.9;25.3;;;;;;;4.91;61.50586;942.1689;;;;
2022/11/27 15:35:36;;;;;;;49.6;27;;;;;;;4.81;64.3877;942.178;;;;
2022/11/27 15:38:04;;;;;;;38.9;22.3;;;;;;;4.83;61.75391;942.1819;;;;
2022/11/27 15:40:27;;;;;;;38.5;23.2;;;;;;;4.69;62.12793;942.085;;;;
2022/11/27 15:42:56;;;;;;;33.5;20.1;;;;;;;4.43;62.77637;942.1277;;;;
2022/11/27 15:45:21;;;;;;;30.6;19.6;;;;;;;4.25;63.52637;942.1369;;;;
2022/11/27 15:47:47;;;;;;;24.1;14.8;;;;;;;4.08;64.68164;942.0881;;;;
2022/11/27 15:50:12;;;;;;;25.6;15.2;;;;;;;4.04;64.31641;942.1061;;;;
2022/11/27 15:52:37;;;;;;;22.5;13.7;;;;;;;3.86;64.45801;942.0539;;;;
2022/11/27 15:55:03;;;;;;;25.4;14.6;;;;;;;3.98;64.91406;942.0223;;;;
2022/11/27 15:57:28;;;;;;;26.9;15.5;;;;;;;4.06;64.70215;941.902;;;;
2022/11/27 15:59:53;;;;;;;21.8;13.8;;;;;;;4.07;64.69043;941.9119;;;;
2022/11/27 16:02:18;;;;;;;24.2;14.6;;;;;;;3.98;64.57813;941.8524;;;;
2022/11/27 16:04:46;;;;;;;21.7;13.4;;;;;;;3.96;65.36133;941.9269;;;;
2022/11/27 16:07:11;;;;;;;22.4;13.9;;;;;;;3.94;65.04199;941.8851;;;;